Time,TemperatureF,DewpointF,PressureIn,WindDirection,WindDirectionDegrees,WindSpeedMPH,WindSpeedGustMPH,Humidity,HourlyPrecipIn,Conditions,Clouds,dailyrainin,SolarRadiationWatts/m^2,SoftwareType,DateUTC
2013-02-14 00:00:00,43.6,34.5,29.73,WNW,290,5.0,5.0,70,0.00,,,0.24,0.00,VWS V14.01,2013-02-14 05:00:00,
2013-02-14 00:05:00,43.5,34.4,29.73,NNW,339,2.0,3.0,70,0.00,,,0.00,0.00,VWS V14.01,2013-02-14 05:05:00,
2013-02-14 00:10:00,43.2,34.1,29.73,NW,319,3.0,6.0,70,0.00,,,0.00,0.00,VWS V14.01,2013-02-14 05:10:00,
2013-02-14 00:15:00,43.1,34.0,29.74,NW,306,7.0,9.0,70,0.00,,,0.00,0.00,VWS V14.01,2013-02-14 05:15:00,
2013-02-14 00:20:00,42.9,33.4,29.74,West,280,1.0,5.0,69,0.00,,,0.00,0.00,VWS V14.01,2013-02-14 05:20:00,
2013-02-14 00:25:00,42.8,33.3,29.74,WNW,296,4.0,5.0,69,0.00,,,0.00,0.00,VWS V14.01,2013-02-14 05:25:00,
2013-02-14 00:30:00,42.6,33.5,29.74,NW,319,3.0,4.0,70,0.00,,,0.00,0.00,VWS V14.01,2013-02-14 05:30:00,
2013-02-14 00:35:00,42.5,33.4,29.74,West,261,0.0,0.0,70,0.00,,,0.00,0.00,VWS V14.01,2013-02-14 05:35:00,
2013-02-14 00:40:00,42.2,33.1,29.74,WNW,291,0.0,0.0,70,0.00,,,0.00,0.00,VWS V14.01,2013-02-14 05:40:00,
2013-02-14 00:45:00,41.9,33.2,29.75,West,280,3.0,4.0,71,0.00,,,0.00,0.00,VWS V14.01,2013-02-14 05:45:00,
2013-02-14 00:50:00,41.8,33.1,29.75,West,280,3.0,3.0,71,0.00,,,0.00,0.00,VWS V14.01,2013-02-14 05:50:00,
2013-02-14 00:55:00,41.6,33.3,29.75,WNW,293,0.0,3.0,72,0.00,,,0.00,0.00,VWS V14.01,2013-02-14 05:55:00,
2013-02-14 01:00:00,41.5,33.2,29.75,WNW,288,0.0,4.0,72,0.00,,,0.00,0.00,VWS V14.01,2013-02-14 06:00:00,
2013-02-14 01:05:00,41.5,33.2,29.75,NW,312,0.0,0.0,72,0.00,,,0.00,0.00,VWS V14.01,2013-02-14 06:05:00,
2013-02-14 01:10:00,41.2,32.9,29.75,NW,312,0.0,1.0,72,0.00,,,0.00,0.00,VWS V14.01,2013-02-14 06:10:00,
2013-02-14 01:15:00,41.1,32.8,29.75,NW,308,4.0,5.0,72,0.00,,,0.00,0.00,VWS V14.01,2013-02-14 06:15:00,
2013-02-14 01:20:00,40.9,32.6,29.75,NW,324,2.0,3.0,72,0.00,,,0.00,0.00,VWS V14.01,2013-02-14 06:20:00,
2013-02-14 01:25:00,40.6,32.3,29.75,WNW,291,0.0,3.0,72,0.00,,,0.00,0.00,VWS V14.01,2013-02-14 06:25:00,
2013-02-14 01:30:00,40.5,32.5,29.76,WNW,289,0.0,0.0,73,0.00,,,0.00,0.00,VWS V14.01,2013-02-14 06:30:00,
2013-02-14 01:35:00,40.3,32.3,29.76,North,353,4.0,5.0,73,0.00,,,0.00,0.00,VWS V14.01,2013-02-14 06:35:00,
2013-02-14 01:40:00,40.2,32.2,29.76,NW,323,0.0,0.0,73,0.00,,,0.00,0.00,VWS V14.01,2013-02-14 06:40:00,
2013-02-14 01:45:00,40.1,32.2,29.77,NW,321,0.0,2.0,73,0.00,,,0.00,0.00,VWS V14.01,2013-02-14 06:45:00,
2013-02-14 01:50:00,39.9,32.0,29.77,NW,321,3.0,3.0,73,0.00,,,0.00,0.00,VWS V14.01,2013-02-14 06:50:00,
2013-02-14 01:55:00,39.8,32.2,29.77,NW,321,3.0,3.0,74,0.00,,,0.00,0.00,VWS V14.01,2013-02-14 06:55:00,
2013-02-14 02:00:00,39.6,32.0,29.77,NW,322,0.0,0.0,74,0.00,,,0.00,0.00,VWS V14.01,2013-02-14 07:00:00,
2013-02-14 02:05:00,39.5,31.9,29.77,NW,322,0.0,0.0,74,0.00,,,0.00,0.00,VWS V14.01,2013-02-14 07:05:00,
2013-02-14 02:10:00,39.3,32.0,29.77,NW,322,0.0,0.0,75,0.00,,,0.00,0.00,VWS V14.01,2013-02-14 07:10:00,
2013-02-14 02:15:00,39.2,32.0,29.77,NW,304,0.0,0.0,75,0.00,,,0.00,0.00,VWS V14.01,2013-02-14 07:15:00,
2013-02-14 02:20:00,39.1,31.9,29.77,NNW,336,0.0,0.0,75,0.00,,,0.00,0.00,VWS V14.01,2013-02-14 07:20:00,
2013-02-14 02:25:00,38.9,31.7,29.77,NE,48,0.0,0.0,75,0.00,,,0.00,0.00,VWS V14.01,2013-02-14 07:25:00,
2013-02-14 02:30:00,38.8,31.9,29.77,NNW,342,0.0,0.0,76,0.00,,,0.00,0.00,VWS V14.01,2013-02-14 07:30:00,
2013-02-14 02:35:00,38.6,31.7,29.77,NNW,342,0.0,0.0,76,0.00,,,0.00,0.00,VWS V14.01,2013-02-14 07:35:00,
2013-02-14 02:40:00,38.5,31.6,29.77,NNW,342,0.0,0.0,76,0.00,,,0.00,0.00,VWS V14.01,2013-02-14 07:40:00,
2013-02-14 02:45:00,38.5,31.6,29.78,NNW,342,0.0,0.0,76,0.00,,,0.00,0.00,VWS V14.01,2013-02-14 07:45:00,
2013-02-14 02:50:00,38.3,31.4,29.78,NW,320,4.0,5.0,76,0.00,,,0.00,0.00,VWS V14.01,2013-02-14 07:50:00,
2013-02-14 02:55:00,38.3,31.4,29.78,NW,320,0.0,0.0,76,0.00,,,0.00,0.00,VWS V14.01,2013-02-14 07:55:00,
2013-02-14 03:00:00,38.2,31.3,29.78,NW,320,0.0,0.0,76,0.00,,,0.00,0.00,VWS V14.01,2013-02-14 08:00:00,
2013-02-14 03:05:00,38.0,31.4,29.78,NW,320,0.0,0.0,77,0.00,,,0.00,0.00,VWS V14.01,2013-02-14 08:05:00,
2013-02-14 03:10:00,37.8,31.2,29.78,NW,320,0.0,0.0,77,0.00,,,0.00,0.00,VWS V14.01,2013-02-14 08:10:00,
2013-02-14 03:15:00,37.6,31.7,29.79,NW,320,0.0,0.0,79,0.00,,,0.00,0.00,VWS V14.01,2013-02-14 08:15:00,
2013-02-14 03:20:00,37.2,31.3,29.79,NW,320,0.0,0.0,79,0.00,,,0.00,0.00,VWS V14.01,2013-02-14 08:20:00,
2013-02-14 03:25:00,36.9,31.3,29.79,NW,320,0.0,0.0,80,0.00,,,0.00,0.00,VWS V14.01,2013-02-14 08:25:00,
2013-02-14 03:30:00,36.5,31.2,29.80,NW,320,0.0,0.0,81,0.00,,,0.00,0.00,VWS V14.01,2013-02-14 08:30:00,
2013-02-14 03:35:00,36.2,30.9,29.80,NW,320,0.0,0.0,81,0.00,,,0.00,0.00,VWS V14.01,2013-02-14 08:35:00,
2013-02-14 03:40:00,35.9,31.0,29.80,NW,320,0.0,0.0,82,0.00,,,0.00,0.00,VWS V14.01,2013-02-14 08:40:00,
2013-02-14 03:45:00,35.6,31.0,29.81,NW,320,0.0,0.0,83,0.00,,,0.00,0.00,VWS V14.01,2013-02-14 08:45:00,
2013-02-14 03:50:00,35.3,30.7,29.81,NW,320,0.0,0.0,83,0.00,,,0.00,0.00,VWS V14.01,2013-02-14 08:50:00,
2013-02-14 03:55:00,35.2,30.9,29.81,NW,320,0.0,0.0,84,0.00,,,0.00,0.00,VWS V14.01,2013-02-14 08:55:00,
2013-02-14 04:00:00,34.9,30.6,29.81,NW,320,0.0,0.0,84,0.00,,,0.00,0.00,VWS V14.01,2013-02-14 09:00:00,
2013-02-14 04:05:00,34.7,30.7,29.81,NW,320,0.0,0.0,85,0.00,,,0.00,0.00,VWS V14.01,2013-02-14 09:05:00,
2013-02-14 04:10:00,34.4,30.4,29.81,NW,320,0.0,0.0,85,0.00,,,0.00,0.00,VWS V14.01,2013-02-14 09:10:00,
2013-02-14 04:15:00,34.1,30.4,29.82,NW,320,0.0,0.0,86,0.00,,,0.00,0.00,VWS V14.01,2013-02-14 09:15:00,
2013-02-14 04:20:00,34.0,30.3,29.82,NW,320,0.0,0.0,86,0.00,,,0.00,0.00,VWS V14.01,2013-02-14 09:20:00,
2013-02-14 04:25:00,33.7,30.0,29.82,NW,320,0.0,0.0,86,0.00,,,0.00,0.00,VWS V14.01,2013-02-14 09:25:00,
2013-02-14 04:30:00,33.5,29.8,29.82,NW,320,0.0,0.0,86,0.00,,,0.00,0.00,VWS V14.01,2013-02-14 09:30:00,
2013-02-14 04:35:00,33.4,30.0,29.82,NW,320,0.0,0.0,87,0.00,,,0.00,0.00,VWS V14.01,2013-02-14 09:35:00,
2013-02-14 04:40:00,33.2,29.8,29.82,NW,320,0.0,0.0,87,0.00,,,0.00,0.00,VWS V14.01,2013-02-14 09:40:00,
2013-02-14 04:45:00,33.1,29.7,29.83,NW,320,0.0,0.0,87,0.00,,,0.00,0.00,VWS V14.01,2013-02-14 09:45:00,
2013-02-14 04:50:00,32.9,29.7,29.83,NW,320,0.0,0.0,88,0.00,,,0.00,0.00,VWS V14.01,2013-02-14 09:50:00,
2013-02-14 04:55:00,32.8,29.6,29.83,NW,320,0.0,0.0,88,0.00,,,0.00,0.00,VWS V14.01,2013-02-14 09:55:00,
2013-02-14 05:00:00,32.7,29.5,29.83,NW,320,0.0,0.0,88,0.00,,,0.00,0.00,VWS V14.01,2013-02-14 10:00:00,
2013-02-14 05:05:00,32.5,29.4,29.83,NW,320,0.0,0.0,88,0.00,,,0.00,0.00,VWS V14.01,2013-02-14 10:05:00,
2013-02-14 05:10:00,32.4,29.2,29.83,NW,320,0.0,0.0,88,0.00,,,0.00,0.00,VWS V14.01,2013-02-14 10:10:00,
2013-02-14 05:15:00,32.4,29.2,29.84,NW,320,0.0,0.0,88,0.00,,,0.00,0.00,VWS V14.01,2013-02-14 10:15:00,
2013-02-14 05:20:00,32.2,29.3,29.84,NW,320,0.0,0.0,89,0.00,,,0.00,0.00,VWS V14.01,2013-02-14 10:20:00,
2013-02-14 05:25:00,32.1,29.2,29.84,NW,320,0.0,0.0,89,0.00,,,0.00,0.00,VWS V14.01,2013-02-14 10:25:00,
2013-02-14 05:30:00,31.9,29.0,29.85,NW,320,0.0,0.0,89,0.00,,,0.00,0.00,VWS V14.01,2013-02-14 10:30:00,
2013-02-14 05:35:00,31.8,28.9,29.85,NW,320,0.0,0.0,89,0.00,,,0.00,0.00,VWS V14.01,2013-02-14 10:35:00,
2013-02-14 05:40:00,31.6,28.7,29.85,NW,320,0.0,0.0,89,0.00,,,0.00,0.00,VWS V14.01,2013-02-14 10:40:00,
2013-02-14 05:45:00,31.5,28.6,29.85,NW,320,0.0,0.0,89,0.00,,,0.00,0.00,VWS V14.01,2013-02-14 10:45:00,
2013-02-14 05:50:00,31.5,28.6,29.85,NW,320,0.0,0.0,89,0.00,,,0.00,0.00,VWS V14.01,2013-02-14 10:50:00,
2013-02-14 05:55:00,31.3,28.7,29.85,NW,320,0.0,0.0,90,0.00,,,0.00,0.00,VWS V14.01,2013-02-14 10:55:00,
2013-02-14 06:00:00,31.2,28.6,29.86,NW,320,0.0,0.0,90,0.00,,,0.00,0.00,VWS V14.01,2013-02-14 11:00:00,
2013-02-14 06:05:00,31.0,28.4,29.86,NW,320,0.0,0.0,90,0.00,,,0.00,0.00,VWS V14.01,2013-02-14 11:05:00,
2013-02-14 06:10:00,30.9,28.3,29.86,NW,320,0.0,0.0,90,0.00,,,0.00,0.00,VWS V14.01,2013-02-14 11:10:00,
2013-02-14 06:15:00,30.7,28.1,29.86,NW,320,0.0,0.0,90,0.00,,,0.00,0.00,VWS V14.01,2013-02-14 11:15:00,
2013-02-14 06:20:00,30.6,28.0,29.86,NW,320,0.0,0.0,90,0.00,,,0.00,0.00,VWS V14.01,2013-02-14 11:20:00,
2013-02-14 06:25:00,30.6,28.0,29.86,NW,320,0.0,0.0,90,0.00,,,0.00,0.00,VWS V14.01,2013-02-14 11:25:00,
2013-02-14 06:30:00,30.4,27.8,29.87,NW,320,0.0,0.0,90,0.00,,,0.00,0.00,VWS V14.01,2013-02-14 11:30:00,
2013-02-14 06:35:00,30.3,27.7,29.87,NW,320,0.0,0.0,90,0.00,,,0.00,0.00,VWS V14.01,2013-02-14 11:35:00,
2013-02-14 06:40:00,30.3,28.0,29.87,NW,320,0.0,0.0,91,0.00,,,0.00,0.00,VWS V14.01,2013-02-14 11:40:00,
2013-02-14 06:45:00,30.4,28.1,29.88,NW,320,0.0,0.0,91,0.00,,,0.00,0.00,VWS V14.01,2013-02-14 11:45:00,
2013-02-14 06:50:00,30.4,28.1,29.88,NW,320,0.0,0.0,91,0.00,,,0.00,0.00,VWS V14.01,2013-02-14 11:50:00,
2013-02-14 06:55:00,30.4,28.1,29.88,NW,320,0.0,0.0,91,0.00,,,0.00,0.00,VWS V14.01,2013-02-14 11:55:00,
2013-02-14 07:00:00,30.3,28.0,29.89,NW,320,0.0,0.0,91,0.00,,,0.00,0.00,VWS V14.01,2013-02-14 12:00:00,
2013-02-14 07:05:00,30.1,27.8,29.89,NW,320,0.0,0.0,91,0.00,,,0.00,0.00,VWS V14.01,2013-02-14 12:05:00,
2013-02-14 07:10:00,30.0,27.7,29.89,NW,320,0.0,0.0,91,0.00,,,0.00,5.00,VWS V14.01,2013-02-14 12:10:00,
2013-02-14 07:15:00,29.8,27.5,29.90,NW,320,0.0,0.0,91,0.00,,,0.00,7.00,VWS V14.01,2013-02-14 12:15:00,
2013-02-14 07:20:00,29.7,27.4,29.90,NW,320,0.0,0.0,91,0.00,,,0.00,12.00,VWS V14.01,2013-02-14 12:20:00,
2013-02-14 07:25:00,29.5,27.2,29.90,NW,320,0.0,0.0,91,0.00,,,0.00,14.00,VWS V14.01,2013-02-14 12:25:00,
2013-02-14 07:30:00,29.5,27.2,29.91,NW,320,0.0,0.0,91,0.00,,,0.00,16.00,VWS V14.01,2013-02-14 12:30:00,
2013-02-14 07:35:00,29.7,27.4,29.91,NW,320,0.0,0.0,91,0.00,,,0.00,19.00,VWS V14.01,2013-02-14 12:35:00,
2013-02-14 07:40:00,29.7,27.4,29.91,NW,320,0.0,0.0,91,0.00,,,0.00,21.00,VWS V14.01,2013-02-14 12:40:00,
2013-02-14 07:45:00,30.1,28.1,29.91,NW,320,0.0,0.0,92,0.00,,,0.00,23.00,VWS V14.01,2013-02-14 12:45:00,
2013-02-14 07:50:00,30.4,28.4,29.91,NW,320,0.0,0.0,92,0.00,,,0.00,26.00,VWS V14.01,2013-02-14 12:50:00,
2013-02-14 07:55:00,30.9,28.9,29.91,NW,320,0.0,0.0,92,0.00,,,0.00,28.00,VWS V14.01,2013-02-14 12:55:00,
2013-02-14 08:00:00,31.3,29.2,29.91,NW,320,0.0,0.0,92,0.00,,,0.00,28.00,VWS V14.01,2013-02-14 13:00:00,
2013-02-14 08:05:00,31.6,29.5,29.91,NW,320,0.0,0.0,92,0.00,,,0.00,30.00,VWS V14.01,2013-02-14 13:05:00,
2013-02-14 08:10:00,31.8,29.8,29.91,NW,320,0.0,0.0,92,0.00,,,0.00,35.00,VWS V14.01,2013-02-14 13:10:00,
2013-02-14 08:15:00,32.2,30.4,29.92,NW,320,0.0,0.0,93,0.00,,,0.00,42.00,VWS V14.01,2013-02-14 13:15:00,
2013-02-14 08:20:00,32.5,30.7,29.92,NW,320,0.0,0.0,93,0.00,,,0.00,28.00,VWS V14.01,2013-02-14 13:20:00,
2013-02-14 08:25:00,32.9,31.1,29.92,NW,320,0.0,0.0,93,0.00,,,0.00,30.00,VWS V14.01,2013-02-14 13:25:00,
2013-02-14 08:30:00,33.1,31.3,29.94,NW,320,0.0,0.0,93,0.00,,,0.00,23.00,VWS V14.01,2013-02-14 13:30:00,
2013-02-14 08:35:00,33.2,31.4,29.94,NW,320,0.0,0.0,93,0.00,,,0.00,37.00,VWS V14.01,2013-02-14 13:35:00,
2013-02-14 08:40:00,33.4,31.6,29.94,NW,320,0.0,0.0,93,0.00,,,0.00,51.00,VWS V14.01,2013-02-14 13:40:00,
2013-02-14 08:45:00,33.5,31.7,29.95,NW,320,0.0,0.0,93,0.00,,,0.00,39.00,VWS V14.01,2013-02-14 13:45:00,
2013-02-14 08:50:00,33.8,32.0,29.95,NW,320,0.0,0.0,93,0.00,,,0.00,40.00,VWS V14.01,2013-02-14 13:50:00,
2013-02-14 08:55:00,34.4,32.9,29.95,NW,320,0.0,0.0,94,0.00,,,0.00,104.00,VWS V14.01,2013-02-14 13:55:00,
2013-02-14 09:00:00,35.2,33.7,29.96,NW,320,0.0,0.0,94,0.00,,,0.00,329.00,VWS V14.01,2013-02-14 14:00:00,
2013-02-14 09:05:00,36.2,34.6,29.96,NW,320,0.0,0.0,94,0.00,,,0.00,276.00,VWS V14.01,2013-02-14 14:05:00,
2013-02-14 09:10:00,37.5,36.2,29.96,NW,320,0.0,0.0,95,0.00,,,0.00,288.00,VWS V14.01,2013-02-14 14:10:00,
2013-02-14 09:15:00,38.3,37.0,29.95,NW,320,0.0,0.0,95,0.00,,,0.00,290.00,VWS V14.01,2013-02-14 14:15:00,
2013-02-14 09:20:00,39.2,37.6,29.95,NW,320,2.0,2.0,94,0.00,,,0.00,367.00,VWS V14.01,2013-02-14 14:20:00,
2013-02-14 09:25:00,40.2,38.6,29.95,North,0,0.0,0.0,94,0.00,,,0.00,260.00,VWS V14.01,2013-02-14 14:25:00,
2013-02-14 09:30:00,40.6,38.7,29.95,NNE,24,0.0,0.0,93,0.00,,,0.00,429.00,VWS V14.01,2013-02-14 14:30:00,
2013-02-14 09:35:00,41.2,37.9,29.95,NNE,32,0.0,1.0,88,0.00,,,0.00,439.00,VWS V14.01,2013-02-14 14:35:00,
2013-02-14 09:40:00,42.1,37.0,29.95,NNE,29,3.0,5.0,82,0.00,,,0.00,462.00,VWS V14.01,2013-02-14 14:40:00,
2013-02-14 09:45:00,42.9,35.9,29.95,North,0,3.0,5.0,76,0.00,,,0.00,403.00,VWS V14.01,2013-02-14 14:45:00,
2013-02-14 09:50:00,43.6,34.8,29.95,North,0,5.0,10.0,71,0.00,,,0.00,438.00,VWS V14.01,2013-02-14 14:50:00,
2013-02-14 09:55:00,44.2,34.0,29.95,NNE,15,7.0,13.0,67,0.00,,,0.00,490.00,VWS V14.01,2013-02-14 14:55:00,
2013-02-14 10:00:00,44.8,33.4,29.94,North,11,9.0,9.0,64,0.00,,,0.00,512.00,VWS V14.01,2013-02-14 15:00:00,
2013-02-14 10:05:00,45.5,32.0,29.94,East,79,6.0,11.0,59,0.00,,,0.00,506.00,VWS V14.01,2013-02-14 15:05:00,
2013-02-14 10:10:00,46.0,31.2,29.94,North,358,5.0,11.0,56,0.00,,,0.00,631.00,VWS V14.01,2013-02-14 15:10:00,
2013-02-14 10:15:00,46.2,31.4,29.94,North,355,4.0,6.0,56,0.00,,,0.00,269.00,VWS V14.01,2013-02-14 15:15:00,
2013-02-14 10:20:00,46.2,31.4,29.94,NNE,23,0.0,6.0,56,0.00,,,0.00,585.00,VWS V14.01,2013-02-14 15:20:00,
2013-02-14 10:25:00,46.7,31.9,29.94,North,358,0.0,0.0,56,0.00,,,0.00,587.00,VWS V14.01,2013-02-14 15:25:00,
2013-02-14 10:30:00,47.4,31.6,29.94,ENE,65,0.0,3.0,54,0.00,,,0.00,550.00,VWS V14.01,2013-02-14 15:30:00,
2013-02-14 10:35:00,48.2,31.9,29.94,NNW,337,3.0,3.0,53,0.00,,,0.00,512.00,VWS V14.01,2013-02-14 15:35:00,
2013-02-14 10:40:00,48.5,31.2,29.94,NNE,26,0.0,0.0,51,0.00,,,0.00,621.00,VWS V14.01,2013-02-14 15:40:00,
2013-02-14 10:45:00,48.8,31.5,29.95,North,358,4.0,5.0,51,0.00,,,0.00,626.00,VWS V14.01,2013-02-14 15:45:00,
2013-02-14 10:50:00,49.1,31.8,29.95,NNW,342,3.0,4.0,51,0.00,,,0.00,666.00,VWS V14.01,2013-02-14 15:50:00,
2013-02-14 10:55:00,49.2,31.4,29.95,NW,311,0.0,0.0,50,0.00,,,0.00,694.00,VWS V14.01,2013-02-14 15:55:00,
2013-02-14 11:00:00,49.2,31.4,29.95,North,358,9.0,10.0,50,0.00,,,0.00,241.00,VWS V14.01,2013-02-14 16:00:00,
2013-02-14 11:05:00,49.1,30.8,29.95,North,0,0.0,0.0,49,0.00,,,0.00,687.00,VWS V14.01,2013-02-14 16:05:00,
2013-02-14 11:10:00,49.4,31.1,29.95,NW,311,4.0,5.0,49,0.00,,,0.00,563.00,VWS V14.01,2013-02-14 16:10:00,
2013-02-14 11:15:00,49.4,30.5,29.95,NW,314,0.0,0.0,48,0.00,,,0.00,543.00,VWS V14.01,2013-02-14 16:15:00,
2013-02-14 11:20:00,49.6,31.7,29.95,NW,324,0.0,4.0,50,0.00,,,0.00,492.00,VWS V14.01,2013-02-14 16:20:00,
2013-02-14 11:25:00,49.9,32.0,29.95,NNW,328,3.0,3.0,50,0.00,,,0.00,492.00,VWS V14.01,2013-02-14 16:25:00,
2013-02-14 11:30:00,50.4,32.0,29.95,WNW,300,4.0,4.0,49,0.00,,,0.00,689.00,VWS V14.01,2013-02-14 16:30:00,
2013-02-14 11:35:00,50.1,30.7,29.95,West,269,0.0,0.0,47,0.00,,,0.00,592.00,VWS V14.01,2013-02-14 16:35:00,
2013-02-14 11:40:00,50.2,31.3,29.95,NNW,347,0.0,4.0,48,0.00,,,0.00,640.00,VWS V14.01,2013-02-14 16:40:00,
2013-02-14 11:45:00,50.5,31.0,29.95,WNW,297,0.0,2.0,47,0.00,,,0.00,455.00,VWS V14.01,2013-02-14 16:45:00,
2013-02-14 11:50:00,50.2,30.8,29.95,North,358,1.0,4.0,47,0.00,,,0.00,554.00,VWS V14.01,2013-02-14 16:50:00,
2013-02-14 11:55:00,50.4,31.5,29.95,North,0,2.0,5.0,48,0.00,,,0.00,629.00,VWS V14.01,2013-02-14 16:55:00,
2013-02-14 12:00:00,50.4,31.5,29.94,NE,56,0.0,0.0,48,0.00,,,0.00,506.00,VWS V14.01,2013-02-14 17:00:00,
2013-02-14 12:05:00,50.2,31.8,29.94,NE,56,0.0,0.0,49,0.00,,,0.00,476.00,VWS V14.01,2013-02-14 17:05:00,
2013-02-14 12:10:00,50.5,31.6,29.94,SE,137,2.0,3.0,48,0.00,,,0.00,564.00,VWS V14.01,2013-02-14 17:10:00,
2013-02-14 12:15:00,50.8,31.3,29.95,SE,138,0.0,0.0,47,0.00,,,0.00,308.00,VWS V14.01,2013-02-14 17:15:00,
2013-02-14 12:20:00,51.1,31.1,29.95,East,83,1.0,1.0,46,0.00,,,0.00,234.00,VWS V14.01,2013-02-14 17:20:00,
2013-02-14 12:25:00,51.1,30.5,29.95,South,186,1.0,2.0,45,0.00,,,0.00,234.00,VWS V14.01,2013-02-14 17:25:00,
2013-02-14 12:30:00,51.3,31.2,29.94,WSW,257,2.0,5.0,46,0.00,,,0.00,540.00,VWS V14.01,2013-02-14 17:30:00,
2013-02-14 12:35:00,51.6,31.0,29.94,West,277,0.0,0.0,45,0.00,,,0.00,279.00,VWS V14.01,2013-02-14 17:35:00,
2013-02-14 12:40:00,51.6,30.4,29.94,SSW,198,2.0,2.0,44,0.00,,,0.00,272.00,VWS V14.01,2013-02-14 17:40:00,
2013-02-14 12:45:00,51.6,30.4,29.94,NW,311,0.0,0.0,44,0.00,,,0.00,345.00,VWS V14.01,2013-02-14 17:45:00,
2013-02-14 12:50:00,51.7,31.6,29.94,NW,311,0.0,0.0,46,0.00,,,0.00,754.00,VWS V14.01,2013-02-14 17:50:00,
2013-02-14 12:55:00,52.3,31.6,29.94,West,275,2.0,4.0,45,0.00,,,0.00,529.00,VWS V14.01,2013-02-14 17:55:00,
2013-02-14 13:00:00,52.6,31.3,29.93,West,264,2.0,4.0,44,0.00,,,0.00,429.00,VWS V14.01,2013-02-14 18:00:00,
2013-02-14 13:05:00,52.6,30.8,29.93,West,281,3.0,4.0,43,0.00,,,0.00,434.00,VWS V14.01,2013-02-14 18:05:00,
2013-02-14 13:09:00,52.6,31.3,29.93,West,259,0.0,1.0,44,0.00,,,0.00,617.00,VWS V14.01,2013-02-14 18:09:00,
2013-02-14 13:15:00,52.6,31.3,29.93,WNW,300,0.0,0.0,44,0.00,,,0.00,615.00,VWS V14.01,2013-02-14 18:15:00,
2013-02-14 13:20:00,52.6,31.3,29.93,WSW,251,4.0,4.0,44,0.00,,,0.00,297.00,VWS V14.01,2013-02-14 18:20:00,
2013-02-14 13:24:00,52.5,30.7,29.93,West,281,0.0,0.0,43,0.00,,,0.00,610.00,VWS V14.01,2013-02-14 18:24:00,
2013-02-14 13:29:00,52.6,30.8,29.92,SW,217,0.0,0.0,43,0.00,,,0.00,659.00,VWS V14.01,2013-02-14 18:29:00,
2013-02-14 13:34:00,52.8,30.9,29.92,SW,229,5.0,7.0,43,0.00,,,0.00,401.00,VWS V14.01,2013-02-14 18:34:00,
2013-02-14 13:39:00,53.1,31.2,29.92,South,176,4.0,5.0,43,0.00,,,0.00,506.00,VWS V14.01,2013-02-14 18:39:00,
2013-02-14 13:45:00,53.1,30.6,29.91,South,181,5.0,10.0,42,0.00,,,0.00,689.00,VWS V14.01,2013-02-14 18:45:00,
2013-02-14 13:50:00,53.2,30.7,29.91,SSW,197,3.0,9.0,42,0.00,,,0.00,596.00,VWS V14.01,2013-02-14 18:50:00,
2013-02-14 13:55:00,53.2,30.7,29.91,WSW,248,7.0,7.0,42,0.00,,,0.00,383.00,VWS V14.01,2013-02-14 18:55:00,
2013-02-14 14:00:00,53.2,30.7,29.91,SSW,197,3.0,4.0,42,0.00,,,0.00,622.00,VWS V14.01,2013-02-14 19:00:00,
2013-02-14 14:05:00,52.9,31.0,29.91,WSW,252,5.0,5.0,43,0.00,,,0.00,267.00,VWS V14.01,2013-02-14 19:05:00,
2013-02-14 14:10:00,52.6,28.4,29.91,SW,229,4.0,7.0,39,0.00,,,0.00,302.00,VWS V14.01,2013-02-14 19:10:00,
2013-02-14 14:15:00,52.5,31.2,29.91,SSW,205,3.0,7.0,44,0.00,,,0.00,260.00,VWS V14.01,2013-02-14 19:15:00,
2013-02-14 14:20:00,52.5,30.7,29.91,SW,233,0.0,3.0,43,0.00,,,0.00,260.00,VWS V14.01,2013-02-14 19:20:00,
2013-02-14 14:25:00,52.6,30.8,29.91,NW,316,0.0,3.0,43,0.00,,,0.00,250.00,VWS V14.01,2013-02-14 19:25:00,
2013-02-14 14:30:00,52.3,30.5,29.91,WSW,243,0.0,0.0,43,0.00,,,0.00,243.00,VWS V14.01,2013-02-14 19:30:00,
2013-02-14 14:34:00,52.3,31.0,29.91,WSW,243,0.0,0.0,44,0.00,,,0.00,260.00,VWS V14.01,2013-02-14 19:34:00,
2013-02-14 14:39:00,52.5,30.7,29.91,SW,217,3.0,4.0,43,0.00,,,0.00,471.00,VWS V14.01,2013-02-14 19:39:00,
2013-02-14 14:44:00,52.8,31.5,29.90,SSW,207,2.0,5.0,44,0.00,,,0.00,288.00,VWS V14.01,2013-02-14 19:44:00,
2013-02-14 14:49:00,52.8,31.5,29.90,SSW,210,4.0,7.0,44,0.00,,,0.00,220.00,VWS V14.01,2013-02-14 19:49:00,
2013-02-14 14:54:00,53.1,31.8,29.90,SW,228,4.0,6.0,44,0.00,,,0.00,513.00,VWS V14.01,2013-02-14 19:54:00,
2013-02-14 14:59:00,53.2,30.1,29.91,SW,224,4.0,4.0,41,0.00,,,0.00,385.00,VWS V14.01,2013-02-14 19:59:00,
2013-02-14 15:04:00,53.5,31.0,29.91,West,264,3.0,5.0,42,0.00,,,0.00,587.00,VWS V14.01,2013-02-14 20:04:00,
2013-02-14 15:09:00,53.5,30.4,29.91,West,273,3.0,3.0,41,0.00,,,0.00,229.00,VWS V14.01,2013-02-14 20:09:00,
2013-02-14 15:14:00,53.2,30.7,29.89,SSW,205,3.0,5.0,42,0.00,,,0.00,297.00,VWS V14.01,2013-02-14 20:14:00,
2013-02-14 15:19:00,53.1,30.6,29.89,SSW,207,0.0,0.0,42,0.00,,,0.00,209.00,VWS V14.01,2013-02-14 20:19:00,
2013-02-14 15:24:00,53.2,31.3,29.89,West,275,0.0,2.0,43,0.00,,,0.00,211.00,VWS V14.01,2013-02-14 20:24:00,
2013-02-14 15:29:00,53.1,30.6,29.90,WSW,256,5.0,6.0,42,0.00,,,0.00,229.00,VWS V14.01,2013-02-14 20:29:00,
2013-02-14 15:34:00,52.9,31.0,29.90,WSW,244,4.0,4.0,43,0.00,,,0.00,178.00,VWS V14.01,2013-02-14 20:34:00,
2013-02-14 15:39:00,52.6,30.8,29.90,West,266,10.0,10.0,43,0.00,,,0.00,160.00,VWS V14.01,2013-02-14 20:39:00,
2013-02-14 15:44:00,52.3,30.5,29.91,WSW,257,4.0,5.0,43,0.00,,,0.00,172.00,VWS V14.01,2013-02-14 20:44:00,
2013-02-14 15:49:00,52.2,30.4,29.91,West,266,4.0,8.0,43,0.00,,,0.00,255.00,VWS V14.01,2013-02-14 20:49:00,
2013-02-14 15:54:00,52.2,30.4,29.91,WSW,257,3.0,3.0,43,0.00,,,0.00,192.00,VWS V14.01,2013-02-14 20:54:00,
2013-02-14 15:59:00,52.3,31.0,29.91,WSW,257,0.0,0.0,44,0.00,,,0.00,149.00,VWS V14.01,2013-02-14 20:59:00,
2013-02-14 16:04:00,52.3,31.0,29.91,West,271,7.0,9.0,44,0.00,,,0.00,144.00,VWS V14.01,2013-02-14 21:04:00,
2013-02-14 16:09:00,52.3,31.0,29.91,West,277,5.0,7.0,44,0.00,,,0.00,132.00,VWS V14.01,2013-02-14 21:09:00,
2013-02-14 16:14:00,52.0,30.8,29.90,West,281,2.0,4.0,44,0.00,,,0.00,130.00,VWS V14.01,2013-02-14 21:14:00,
2013-02-14 16:19:00,51.9,31.2,29.90,West,264,0.0,3.0,45,0.00,,,0.00,121.00,VWS V14.01,2013-02-14 21:19:00,
2013-02-14 16:24:00,51.7,31.1,29.90,West,264,0.0,0.0,45,0.00,,,0.00,128.00,VWS V14.01,2013-02-14 21:24:00,
2013-02-14 16:29:00,51.9,32.3,29.91,West,264,2.0,3.0,47,0.00,,,0.00,104.00,VWS V14.01,2013-02-14 21:29:00,
2013-02-14 16:34:00,51.7,31.6,29.91,West,271,4.0,5.0,46,0.00,,,0.00,130.00,VWS V14.01,2013-02-14 21:34:00,
2013-02-14 16:39:00,51.6,31.5,29.91,West,273,5.0,5.0,46,0.00,,,0.00,100.00,VWS V14.01,2013-02-14 21:39:00,
2013-02-14 16:44:00,51.6,31.5,29.91,WSW,254,4.0,4.0,46,0.00,,,0.00,69.00,VWS V14.01,2013-02-14 21:44:00,
2013-02-14 16:49:00,51.3,30.7,29.91,SW,235,0.0,0.0,45,0.00,,,0.00,91.00,VWS V14.01,2013-02-14 21:49:00,
2013-02-14 16:54:00,51.1,31.1,29.91,WSW,237,0.0,0.0,46,0.00,,,0.00,77.00,VWS V14.01,2013-02-14 21:54:00,
2013-02-14 16:59:00,51.0,31.0,29.90,SW,214,2.0,3.0,46,0.00,,,0.00,72.00,VWS V14.01,2013-02-14 21:59:00,
2013-02-14 17:04:00,50.8,30.8,29.90,WSW,240,3.0,3.0,46,0.00,,,0.00,67.00,VWS V14.01,2013-02-14 22:04:00,
2013-02-14 17:09:00,50.7,31.2,29.90,SSW,195,0.0,0.0,47,0.00,,,0.00,53.00,VWS V14.01,2013-02-14 22:09:00,
2013-02-14 17:14:00,50.5,30.5,29.90,SSW,196,3.0,4.0,46,0.00,,,0.00,44.00,VWS V14.01,2013-02-14 22:14:00,
2013-02-14 17:19:00,50.4,31.0,29.90,SW,224,3.0,4.0,47,0.00,,,0.00,40.00,VWS V14.01,2013-02-14 22:19:00,
2013-02-14 17:24:00,50.1,31.2,29.90,WSW,249,0.0,0.0,48,0.00,,,0.00,35.00,VWS V14.01,2013-02-14 22:24:00,
2013-02-14 17:29:00,49.9,31.5,29.91,WSW,249,0.0,0.0,49,0.00,,,0.00,28.00,VWS V14.01,2013-02-14 22:29:00,
2013-02-14 17:34:00,49.6,31.7,29.91,WSW,249,0.0,0.0,50,0.00,,,0.00,16.00,VWS V14.01,2013-02-14 22:34:00,
2013-02-14 17:39:00,49.4,32.0,29.91,WSW,249,0.0,0.0,51,0.00,,,0.00,12.00,VWS V14.01,2013-02-14 22:39:00,
2013-02-14 17:44:00,49.1,33.2,29.91,WSW,249,0.0,0.0,54,0.00,,,0.00,9.00,VWS V14.01,2013-02-14 22:44:00,
2013-02-14 17:49:00,48.6,33.2,29.91,WSW,249,0.0,0.0,55,0.00,,,0.00,7.00,VWS V14.01,2013-02-14 22:49:00,
2013-02-14 17:54:00,48.2,33.3,29.91,WSW,249,0.0,0.0,56,0.00,,,0.00,5.00,VWS V14.01,2013-02-14 22:54:00,
2013-02-14 17:59:00,47.6,33.6,29.91,WSW,249,0.0,0.0,58,0.00,,,0.00,7.00,VWS V14.01,2013-02-14 22:59:00,
2013-02-14 18:04:00,47.1,33.1,29.91,WSW,249,0.0,0.0,58,0.00,,,0.00,5.00,VWS V14.01,2013-02-14 23:04:00,
2013-02-14 18:09:00,46.7,33.2,29.91,WSW,249,0.0,0.0,59,0.00,,,0.00,0.00,VWS V14.01,2013-02-14 23:09:00,
2013-02-14 18:14:00,46.1,32.6,29.93,WSW,249,0.0,0.0,59,0.00,,,0.00,0.00,VWS V14.01,2013-02-14 23:14:00,
2013-02-14 18:19:00,45.7,33.4,29.93,WSW,249,0.0,0.0,62,0.00,,,0.00,0.00,VWS V14.01,2013-02-14 23:19:00,
2013-02-14 18:24:00,45.1,34.0,29.93,WSW,249,0.0,0.0,65,0.00,,,0.00,0.00,VWS V14.01,2013-02-14 23:24:00,
2013-02-14 18:29:00,44.5,33.9,29.92,WSW,249,0.0,0.0,66,0.00,,,0.00,0.00,VWS V14.01,2013-02-14 23:29:00,
2013-02-14 18:34:00,44.1,33.5,29.92,WSW,249,0.0,0.0,66,0.00,,,0.00,0.00,VWS V14.01,2013-02-14 23:34:00,
2013-02-14 18:39:00,43.6,33.4,29.92,WSW,249,0.0,0.0,67,0.00,,,0.00,0.00,VWS V14.01,2013-02-14 23:39:00,
2013-02-14 18:44:00,43.2,33.7,29.92,WSW,249,0.0,0.0,69,0.00,,,0.00,0.00,VWS V14.01,2013-02-14 23:44:00,
2013-02-14 18:49:00,42.8,33.7,29.91,WSW,249,0.0,0.0,70,0.00,,,0.00,0.00,VWS V14.01,2013-02-14 23:49:00,
2013-02-14 18:54:00,42.5,34.1,29.91,WSW,249,0.0,0.0,72,0.00,,,0.00,0.00,VWS V14.01,2013-02-14 23:54:00,
2013-02-14 18:59:00,42.2,34.2,29.91,WSW,249,0.0,0.0,73,0.00,,,0.00,0.00,VWS V14.01,2013-02-14 23:59:00,
2013-02-14 19:04:00,41.9,34.2,29.93,WSW,249,0.0,0.0,74,0.00,,,0.00,0.00,VWS V14.01,2013-02-15 00:04:00,
2013-02-14 19:09:00,41.6,33.9,29.93,WSW,249,0.0,0.0,74,0.00,,,0.00,0.00,VWS V14.01,2013-02-15 00:09:00,
2013-02-14 19:14:00,41.3,33.7,29.93,WSW,249,0.0,0.0,74,0.00,,,0.00,0.00,VWS V14.01,2013-02-15 00:14:00,
2013-02-14 19:19:00,41.1,33.8,29.93,WSW,249,0.0,0.0,75,0.00,,,0.00,0.00,VWS V14.01,2013-02-15 00:19:00,
2013-02-14 19:24:00,40.8,33.8,29.93,WSW,249,0.0,0.0,76,0.00,,,0.00,0.00,VWS V14.01,2013-02-15 00:24:00,
2013-02-14 19:29:00,40.5,33.5,29.93,WSW,249,0.0,0.0,76,0.00,,,0.00,0.00,VWS V14.01,2013-02-15 00:29:00,
2013-02-14 19:34:00,40.3,33.7,29.93,WSW,249,0.0,0.0,77,0.00,,,0.00,0.00,VWS V14.01,2013-02-15 00:34:00,
2013-02-14 19:39:00,40.2,34.2,29.93,WSW,249,0.0,0.0,79,0.00,,,0.00,0.00,VWS V14.01,2013-02-15 00:39:00,
2013-02-14 19:44:00,39.9,33.9,29.93,WSW,249,0.0,0.0,79,0.00,,,0.00,0.00,VWS V14.01,2013-02-15 00:44:00,
2013-02-14 19:49:00,39.8,33.8,29.94,WSW,249,0.0,0.0,79,0.00,,,0.00,0.00,VWS V14.01,2013-02-15 00:49:00,
2013-02-14 19:54:00,39.5,33.8,29.94,WSW,249,0.0,0.0,80,0.00,,,0.00,0.00,VWS V14.01,2013-02-15 00:54:00,
2013-02-14 19:59:00,39.3,33.7,29.94,WSW,249,0.0,0.0,80,0.00,,,0.00,0.00,VWS V14.01,2013-02-15 00:59:00,
2013-02-14 20:04:00,39.1,33.5,29.95,WSW,249,0.0,0.0,80,0.00,,,0.00,0.00,VWS V14.01,2013-02-15 01:04:00,
2013-02-14 20:09:00,38.9,33.6,29.95,WSW,249,0.0,0.0,81,0.00,,,0.00,0.00,VWS V14.01,2013-02-15 01:09:00,
2013-02-14 20:14:00,38.8,33.5,29.95,WSW,249,0.0,0.0,81,0.00,,,0.00,0.00,VWS V14.01,2013-02-15 01:14:00,
2013-02-14 20:19:00,38.5,33.2,29.95,WSW,249,0.0,0.0,81,0.00,,,0.00,0.00,VWS V14.01,2013-02-15 01:19:00,
2013-02-14 20:24:00,38.5,33.5,29.95,WSW,249,0.0,0.0,82,0.00,,,0.00,0.00,VWS V14.01,2013-02-15 01:24:00,
2013-02-14 20:29:00,38.5,33.8,29.95,WSW,249,0.0,0.0,83,0.00,,,0.00,0.00,VWS V14.01,2013-02-15 01:29:00,
2013-02-14 20:34:00,38.3,33.9,29.96,WSW,249,0.0,0.0,84,0.00,,,0.00,0.00,VWS V14.01,2013-02-15 01:34:00,
2013-02-14 20:39:00,38.2,33.8,29.96,WSW,249,0.0,0.0,84,0.00,,,0.00,0.00,VWS V14.01,2013-02-15 01:39:00,
2013-02-14 20:44:00,38.0,33.6,29.96,WSW,249,0.0,0.0,84,0.00,,,0.00,0.00,VWS V14.01,2013-02-15 01:44:00,
2013-02-14 20:49:00,37.9,33.5,29.97,WSW,249,0.0,0.0,84,0.00,,,0.00,0.00,VWS V14.01,2013-02-15 01:49:00,
2013-02-14 20:54:00,37.6,33.2,29.97,WSW,249,0.0,0.0,84,0.00,,,0.00,0.00,VWS V14.01,2013-02-15 01:54:00,
2013-02-14 20:59:00,37.5,33.4,29.97,WSW,249,0.0,0.0,85,0.00,,,0.00,0.00,VWS V14.01,2013-02-15 01:59:00,
2013-02-14 21:04:00,37.3,33.2,29.97,WSW,249,0.0,0.0,85,0.00,,,0.00,0.00,VWS V14.01,2013-02-15 02:04:00,
2013-02-14 21:09:00,37.0,32.9,29.97,WSW,249,0.0,0.0,85,0.00,,,0.00,0.00,VWS V14.01,2013-02-15 02:09:00,
2013-02-14 21:14:00,36.9,32.8,29.97,WSW,249,0.0,0.0,85,0.00,,,0.00,0.00,VWS V14.01,2013-02-15 02:14:00,
2013-02-14 21:19:00,36.6,32.5,29.96,WSW,249,0.0,0.0,85,0.00,,,0.00,0.00,VWS V14.01,2013-02-15 02:19:00,
2013-02-14 21:24:00,36.6,32.5,29.96,WSW,249,0.0,0.0,85,0.00,,,0.00,0.00,VWS V14.01,2013-02-15 02:24:00,
2013-02-14 21:29:00,36.6,32.8,29.96,WSW,249,0.0,0.0,86,0.00,,,0.00,0.00,VWS V14.01,2013-02-15 02:29:00,
2013-02-14 21:34:00,36.5,32.7,29.96,WSW,249,0.0,0.0,86,0.00,,,0.00,0.00,VWS V14.01,2013-02-15 02:34:00,
2013-02-14 21:39:00,36.2,32.4,29.96,WSW,249,0.0,0.0,86,0.00,,,0.00,0.00,VWS V14.01,2013-02-15 02:39:00,
2013-02-14 21:44:00,35.9,32.1,29.96,WSW,249,0.0,0.0,86,0.00,,,0.00,0.00,VWS V14.01,2013-02-15 02:44:00,
2013-02-14 21:49:00,35.8,32.0,29.97,WSW,249,0.0,0.0,86,0.00,,,0.00,0.00,VWS V14.01,2013-02-15 02:49:00,
2013-02-14 21:54:00,35.5,31.7,29.97,WSW,249,0.0,0.0,86,0.00,,,0.00,0.00,VWS V14.01,2013-02-15 02:54:00,
2013-02-14 21:59:00,35.3,31.5,29.97,WSW,249,0.0,0.0,86,0.00,,,0.00,0.00,VWS V14.01,2013-02-15 02:59:00,
2013-02-14 22:04:00,35.2,31.7,29.99,WSW,249,0.0,0.0,87,0.00,,,0.00,0.00,VWS V14.01,2013-02-15 03:04:00,
2013-02-14 22:09:00,35.0,31.5,29.99,WSW,249,0.0,0.0,87,0.00,,,0.00,0.00,VWS V14.01,2013-02-15 03:09:00,
2013-02-14 22:14:00,35.0,31.5,29.99,WSW,249,0.0,0.0,87,0.00,,,0.00,0.00,VWS V14.01,2013-02-15 03:14:00,
2013-02-14 22:19:00,34.9,31.7,29.98,WSW,249,0.0,0.0,88,0.00,,,0.00,0.00,VWS V14.01,2013-02-15 03:19:00,
2013-02-14 22:24:00,34.9,31.7,29.98,WSW,249,0.0,0.0,88,0.00,,,0.00,0.00,VWS V14.01,2013-02-15 03:24:00,
2013-02-14 22:29:00,34.7,31.5,29.98,WSW,249,0.0,0.0,88,0.00,,,0.00,0.00,VWS V14.01,2013-02-15 03:29:00,
2013-02-14 22:34:00,34.4,31.2,29.98,WSW,249,0.0,0.0,88,0.00,,,0.00,0.00,VWS V14.01,2013-02-15 03:34:00,
2013-02-14 22:39:00,34.3,31.1,29.98,WSW,249,0.0,0.0,88,0.00,,,0.00,0.00,VWS V14.01,2013-02-15 03:39:00,
2013-02-14 22:44:00,34.1,30.9,29.98,WSW,249,0.0,0.0,88,0.00,,,0.00,0.00,VWS V14.01,2013-02-15 03:44:00,
2013-02-14 22:49:00,33.8,30.6,29.98,WSW,249,0.0,0.0,88,0.00,,,0.00,0.00,VWS V14.01,2013-02-15 03:49:00,
2013-02-14 22:54:00,33.8,30.6,29.98,WSW,249,0.0,0.0,88,0.00,,,0.00,0.00,VWS V14.01,2013-02-15 03:54:00,
2013-02-14 22:59:00,33.8,30.9,29.98,WSW,249,0.0,0.0,89,0.00,,,0.00,0.00,VWS V14.01,2013-02-15 03:59:00,
2013-02-14 23:04:00,33.8,30.9,29.98,WSW,249,0.0,0.0,89,0.00,,,0.00,0.00,VWS V14.01,2013-02-15 04:04:00,
2013-02-14 23:09:00,33.7,30.8,29.98,WSW,249,0.0,0.0,89,0.00,,,0.00,0.00,VWS V14.01,2013-02-15 04:09:00,
2013-02-14 23:14:00,33.5,30.6,29.98,WSW,249,0.0,0.0,89,0.00,,,0.00,0.00,VWS V14.01,2013-02-15 04:14:00,
2013-02-14 23:19:00,33.4,30.5,29.97,WSW,249,0.0,0.0,89,0.00,,,0.00,0.00,VWS V14.01,2013-02-15 04:19:00,
2013-02-14 23:24:00,33.1,30.2,29.97,WSW,249,0.0,0.0,89,0.00,,,0.00,0.00,VWS V14.01,2013-02-15 04:24:00,
2013-02-14 23:29:00,32.9,30.0,29.97,WSW,249,0.0,0.0,89,0.00,,,0.00,0.00,VWS V14.01,2013-02-15 04:29:00,
2013-02-14 23:34:00,33.1,30.5,29.97,WSW,249,0.0,0.0,90,0.00,,,0.00,0.00,VWS V14.01,2013-02-15 04:34:00,
2013-02-14 23:39:00,33.1,30.5,29.97,WSW,249,0.0,0.0,90,0.00,,,0.00,0.00,VWS V14.01,2013-02-15 04:39:00,
2013-02-14 23:44:00,33.1,30.5,29.97,WSW,249,0.0,0.0,90,0.00,,,0.00,0.00,VWS V14.01,2013-02-15 04:44:00,
2013-02-14 23:49:00,32.9,30.3,29.97,WSW,249,0.0,0.0,90,0.00,,,0.00,0.00,VWS V14.01,2013-02-15 04:49:00,
2013-02-14 23:54:00,32.8,30.2,29.97,WSW,249,0.0,0.0,90,0.00,,,0.00,0.00,VWS V14.01,2013-02-15 04:54:00,
2013-02-14 23:59:00,32.7,30.1,29.97,WSW,249,0.0,0.0,90,0.00,,,0.00,0.00,VWS V14.01,2013-02-15 04:59:00,